createdAt,value
2019-03-31T00:01:10.864Z,101893.23
2019-03-31T00:04:15.180Z,101898.50
2019-03-31T00:07:19.552Z,101902.05
2019-03-31T00:10:23.996Z,101909.09
2019-03-31T00:13:28.472Z,101909.95
2019-03-31T00:16:33.224Z,101913.49
2019-03-31T00:19:37.566Z,101917.04
2019-03-31T00:22:41.903Z,101919.70
2019-03-31T00:25:51.409Z,101926.26
2019-03-31T00:28:55.806Z,101925.86
2019-03-31T00:32:00.167Z,101930.25
2019-03-31T00:35:04.678Z,101932.92
2019-03-31T00:38:09.014Z,101938.60
2019-03-31T00:41:13.385Z,101939.06
2019-03-31T00:44:17.804Z,101937.27
2019-03-31T00:47:22.144Z,101948.73
2019-03-31T00:50:26.463Z,101935.50
2019-03-31T00:53:30.790Z,101938.14
2019-03-31T00:56:35.129Z,101944.77
2019-03-31T00:59:39.456Z,101939.90
2019-03-31T01:02:43.873Z,101938.98
2019-03-31T01:05:48.354Z,101938.14
2019-03-31T01:08:53.044Z,101939.39
2019-03-31T01:11:57.669Z,101945.19
2019-03-31T01:15:02.459Z,101949.12
2019-03-31T01:18:07.551Z,101949.95
2019-03-31T01:21:12.950Z,101949.58
2019-03-31T01:24:17.279Z,101956.56
2019-03-31T01:27:21.868Z,101959.20
2019-03-31T01:30:26.313Z,101963.06
2019-03-31T01:33:30.860Z,101972.27
2019-03-31T01:36:35.233Z,101967.36
2019-03-31T01:39:39.577Z,101973.11
2019-03-31T01:42:44.039Z,101973.09
2019-03-31T01:45:48.459Z,101974.86
2019-03-31T01:48:52.877Z,101976.52
2019-03-31T01:51:57.221Z,101979.45
2019-03-31T01:55:01.755Z,101985.53
2019-03-31T01:58:06.118Z,101984.16
2019-03-31T02:01:13.083Z,101988.20
2019-03-31T02:04:17.413Z,101987.31
2019-03-31T02:07:21.741Z,101990.77
2019-03-31T02:10:26.054Z,101996.53
2019-03-31T02:13:30.410Z,102001.25
2019-03-31T02:16:34.819Z,102003.11
2019-03-31T02:19:39.201Z,102003.52
2019-03-31T02:22:43.616Z,102001.70
2019-03-31T02:25:47.970Z,102006.53
2019-03-31T02:28:52.341Z,102000.00
2019-03-31T02:31:56.772Z,102004.41
2019-03-31T02:35:01.153Z,102004.45
2019-03-31T02:38:05.565Z,102004.77
2019-03-31T02:41:09.941Z,102011.61
2019-03-31T02:44:14.464Z,102006.80
2019-03-31T02:47:18.824Z,102004.16
2019-03-31T02:50:42.186Z,102013.81
2019-03-31T02:53:46.676Z,102018.59
2019-03-31T02:56:51.768Z,102022.62
2019-03-31T02:59:58.624Z,102028.45
2019-03-31T03:03:04.070Z,102033.61
2019-03-31T03:06:11.967Z,102029.95
2019-03-31T03:09:17.875Z,102038.53
2019-03-31T03:12:25.592Z,102034.66
2019-03-31T03:15:30.598Z,102031.25
2019-03-31T03:18:35.009Z,102042.61
2019-03-31T03:21:39.374Z,102044.63
2019-03-31T03:24:43.698Z,102056.52
2019-03-31T03:27:48.044Z,102061.58
2019-03-31T03:30:52.485Z,102062.41
2019-03-31T03:33:56.848Z,102063.77
2019-03-31T03:37:01.180Z,102065.81
2019-03-31T03:40:06.000Z,102066.37
2019-03-31T03:43:10.335Z,102064.21
2019-03-31T03:46:14.711Z,102071.08
2019-03-31T03:49:19.249Z,102070.73
2019-03-31T03:52:23.835Z,102067.00
2019-03-31T03:55:28.173Z,102074.39
2019-03-31T03:58:32.556Z,102073.55
2019-03-31T04:01:36.909Z,102076.22
2019-03-31T04:04:41.223Z,102075.15
2019-03-31T04:07:45.591Z,102079.66
2019-03-31T04:11:24.522Z,102076.19
2019-03-31T04:14:28.910Z,102077.67
2019-03-31T04:17:33.272Z,102079.17
2019-03-31T04:20:39.490Z,102084.22
2019-03-31T04:23:44.035Z,102094.48
2019-03-31T04:26:48.357Z,102096.97
2019-03-31T04:29:52.705Z,102099.74
2019-03-31T04:32:57.051Z,102101.78
2019-03-31T04:36:01.517Z,102104.08
2019-03-31T04:39:07.557Z,102105.91
2019-03-31T04:42:11.922Z,102109.23
2019-03-31T04:45:16.429Z,102106.81
2019-03-31T04:48:20.781Z,102113.17
2019-03-31T04:51:25.226Z,102114.53
2019-03-31T04:54:29.648Z,102117.75
2019-03-31T04:57:33.969Z,102126.30
2019-03-31T05:00:38.340Z,102130.80
2019-03-31T05:03:42.772Z,102138.98
2019-03-31T05:06:47.141Z,102145.70
2019-03-31T05:09:51.527Z,102147.92
2019-03-31T05:12:55.969Z,102154.00
2019-03-31T05:16:00.426Z,102156.94
2019-03-31T05:19:04.775Z,102161.26
2019-03-31T05:22:09.169Z,102171.98
2019-03-31T05:25:13.682Z,102177.50
2019-03-31T05:28:18.041Z,102187.17
2019-03-31T05:31:22.390Z,102189.22
2019-03-31T05:34:26.929Z,102202.58
2019-03-31T05:37:31.312Z,102205.30
2019-03-31T05:40:35.783Z,102205.20
2019-03-31T05:43:40.148Z,102207.02
2019-03-31T05:46:44.524Z,102209.42
2019-03-31T05:49:48.901Z,102202.16
2019-03-31T05:52:53.264Z,102214.48
2019-03-31T05:55:57.704Z,102221.07
2019-03-31T05:59:02.068Z,102225.78
2019-03-31T06:02:06.510Z,102225.01
2019-03-31T06:05:11.075Z,102227.88
2019-03-31T06:08:15.426Z,102228.34
2019-03-31T06:11:19.867Z,102239.81
2019-03-31T06:14:24.234Z,102235.09
2019-03-31T06:17:28.602Z,102244.36
2019-03-31T06:20:32.953Z,102241.97
2019-03-31T06:23:37.415Z,102245.50
2019-03-31T06:26:41.924Z,102245.17
2019-03-31T06:29:46.282Z,102257.68
2019-03-31T06:32:50.658Z,102262.88
2019-03-31T06:35:55.102Z,102267.56
2019-03-31T06:38:59.446Z,102271.72
2019-03-31T06:42:03.857Z,102270.83
2019-03-31T06:45:08.481Z,102280.34
2019-03-31T06:48:12.905Z,102276.29
2019-03-31T06:51:17.357Z,102282.95
2019-03-31T06:54:21.688Z,102285.25
2019-03-31T06:57:26.019Z,102283.75
2019-03-31T07:00:30.455Z,102300.13
2019-03-31T07:03:34.799Z,102303.73
2019-03-31T07:06:39.130Z,102299.82
2019-03-31T07:09:43.477Z,102303.98
2019-03-31T07:12:47.935Z,102308.39
2019-03-31T07:15:52.293Z,102317.45
2019-03-31T07:18:56.683Z,102312.00
2019-03-31T07:22:01.051Z,102312.23
2019-03-31T07:25:07.174Z,102316.16
2019-03-31T07:28:11.856Z,102328.06
2019-03-31T07:31:16.222Z,102327.65
2019-03-31T07:34:20.604Z,102337.81
2019-03-31T07:37:25.054Z,102340.75
2019-03-31T07:40:29.494Z,102347.19
2019-03-31T07:43:33.939Z,102349.23
2019-03-31T07:46:38.352Z,102362.52
2019-03-31T07:49:42.657Z,102355.14
2019-03-31T07:52:47.098Z,102355.20
2019-03-31T07:55:51.485Z,102362.33
2019-03-31T07:58:55.961Z,102362.41
2019-03-31T08:02:00.300Z,102367.67
2019-03-31T08:05:05.353Z,102370.39
2019-03-31T08:08:09.711Z,102378.38
2019-03-31T08:11:16.937Z,102396.02
2019-03-31T08:14:20.211Z,102387.28
2019-03-31T08:17:24.575Z,102389.94
2019-03-31T08:20:29.049Z,102387.45
2019-03-31T08:23:33.415Z,102390.92
2019-03-31T08:26:37.793Z,102403.33
2019-03-31T08:29:42.560Z,102410.66
2019-03-31T08:32:46.925Z,102412.96
2019-03-31T08:35:51.282Z,102409.06
2019-03-31T08:38:55.630Z,102420.20
2019-03-31T08:42:00.011Z,102426.63
2019-03-31T08:45:04.639Z,102432.23
2019-03-31T08:48:09.049Z,102428.89
2019-03-31T08:51:13.497Z,102429.16
2019-03-31T08:54:17.875Z,102439.97
2019-03-31T08:57:22.270Z,102440.05
2019-03-31T09:00:36.580Z,102444.44
2019-03-31T09:03:40.941Z,102458.45
2019-03-31T09:06:45.321Z,102451.63
2019-03-31T09:09:49.780Z,102459.38
2019-03-31T09:12:54.152Z,102458.97
2019-03-31T09:15:58.520Z,102448.55
2019-03-31T09:19:02.955Z,102454.88
2019-03-31T09:22:07.328Z,102462.17
2019-03-31T09:25:13.318Z,102466.21
2019-03-31T09:28:17.695Z,102467.41
2019-03-31T09:31:22.038Z,102478.00
2019-03-31T09:34:26.427Z,102466.52
2019-03-31T09:37:30.804Z,102471.48
2019-03-31T09:40:35.408Z,102473.24
2019-03-31T09:43:39.873Z,102481.77
2019-03-31T09:46:44.261Z,102482.48
2019-03-31T09:49:48.791Z,102474.95
2019-03-31T09:52:53.158Z,102485.61
2019-03-31T09:55:57.627Z,102489.08
2019-03-31T09:59:01.999Z,102483.55
2019-03-31T10:02:06.536Z,102483.59
2019-03-31T10:05:11.364Z,102484.97
2019-03-31T10:08:15.984Z,102484.52
2019-03-31T10:11:20.363Z,102489.23
2019-03-31T10:14:24.758Z,102487.16
2019-03-31T10:17:29.145Z,102480.98
2019-03-31T10:20:33.603Z,102489.67
2019-03-31T10:23:37.968Z,102487.16
2019-03-31T10:26:42.352Z,102484.06
2019-03-31T10:29:46.724Z,102490.16
2019-03-31T10:32:51.106Z,102487.13
2019-03-31T10:35:55.618Z,102493.80
2019-03-31T10:39:00.005Z,102495.22
2019-03-31T10:42:04.443Z,102481.09
2019-03-31T10:45:09.332Z,102482.89
2019-03-31T10:48:20.491Z,102484.56
2019-03-31T10:51:19.940Z,102494.30
2019-03-31T10:54:24.461Z,102491.59
2019-03-31T10:57:28.831Z,102505.70
2019-03-31T11:00:35.027Z,102502.69
2019-03-31T11:03:39.382Z,102490.72
2019-03-31T11:06:58.017Z,102490.77
2019-03-31T11:09:49.804Z,102503.76
2019-03-31T11:12:54.165Z,102495.89
2019-03-31T11:15:58.498Z,102497.92
2019-03-31T11:19:02.873Z,102508.11
2019-03-31T11:22:21.603Z,102502.27
2019-03-31T11:25:29.178Z,102504.45
2019-03-31T11:28:31.981Z,102508.08
2019-03-31T11:31:36.502Z,102509.48
2019-03-31T11:34:40.849Z,102520.53
2019-03-31T11:37:47.222Z,102522.25
2019-03-31T11:40:59.761Z,102526.00
2019-03-31T11:44:04.381Z,102530.39
2019-03-31T11:47:08.882Z,102519.48
2019-03-31T11:50:13.908Z,102522.22
2019-03-31T11:53:18.257Z,102515.66
2019-03-31T11:56:22.600Z,102519.33
2019-03-31T11:59:26.953Z,102524.95
2019-03-31T12:02:31.380Z,102523.91
2019-03-31T12:05:35.717Z,102528.00
2019-03-31T12:08:40.130Z,102526.75
2019-03-31T12:11:45.835Z,102528.00
2019-03-31T12:15:00.287Z,102532.36
2019-03-31T12:17:56.467Z,102522.70
2019-03-31T12:21:00.820Z,102529.84
2019-03-31T12:24:05.130Z,102524.43
2019-03-31T12:27:09.572Z,102534.16
2019-03-31T12:30:15.734Z,102527.55
2019-03-31T12:33:20.152Z,102535.50
2019-03-31T12:36:24.569Z,102539.11
2019-03-31T12:39:28.908Z,102531.05
2019-03-31T12:42:33.239Z,102530.64
2019-03-31T12:45:37.646Z,102536.05
2019-03-31T12:48:41.986Z,102526.37
2019-03-31T12:51:46.314Z,102527.70
2019-03-31T12:54:50.677Z,102534.31
2019-03-31T12:57:55.020Z,102529.38
2019-03-31T13:00:59.502Z,102534.39
2019-03-31T13:04:03.923Z,102539.69
2019-03-31T13:07:08.251Z,102533.02
2019-03-31T13:10:14.154Z,102530.91
2019-03-31T13:13:18.573Z,102536.98
2019-03-31T13:16:22.917Z,102542.19
2019-03-31T13:19:27.305Z,102546.83
2019-03-31T13:22:31.615Z,102543.59
2019-03-31T13:25:35.970Z,102543.23
2019-03-31T13:28:40.297Z,102543.66
2019-03-31T13:31:44.661Z,102551.17
2019-03-31T13:34:49.115Z,102555.58
2019-03-31T13:37:53.584Z,102546.70
2019-03-31T13:40:58.017Z,102548.58
2019-03-31T13:44:02.431Z,102546.83
2019-03-31T13:47:06.773Z,102545.75
2019-03-31T13:50:12.539Z,102547.25
2019-03-31T13:53:16.884Z,102545.89
2019-03-31T13:56:21.201Z,102547.66
2019-03-31T13:59:25.535Z,102551.08
2019-03-31T14:02:29.930Z,102539.25
2019-03-31T14:05:34.538Z,102546.30
2019-03-31T14:08:38.874Z,102552.95
2019-03-31T14:11:43.333Z,102547.50
2019-03-31T14:14:47.656Z,102551.69
2019-03-31T14:17:52.613Z,102553.38
2019-03-31T14:20:57.057Z,102551.95
2019-03-31T14:24:01.417Z,102548.36
2019-03-31T14:27:05.876Z,102544.02
2019-03-31T14:30:10.836Z,102540.12
2019-03-31T14:33:15.165Z,102538.05
2019-03-31T14:36:19.654Z,102541.63
2019-03-31T14:39:24.008Z,102540.20
2019-03-31T14:42:28.487Z,102532.52
2019-03-31T14:45:34.534Z,102533.30
2019-03-31T14:48:38.908Z,102532.55
2019-03-31T14:51:43.409Z,102537.44
2019-03-31T14:54:47.756Z,102540.52
2019-03-31T14:57:52.085Z,102545.36
2019-03-31T15:00:56.487Z,102540.42
2019-03-31T15:04:00.824Z,102544.89
2019-03-31T15:07:05.160Z,102541.23
2019-03-31T15:10:09.702Z,102540.42
2019-03-31T15:13:14.014Z,102539.20
2019-03-31T15:16:18.386Z,102535.97
2019-03-31T15:19:22.757Z,102550.16
2019-03-31T15:22:27.113Z,102549.25
2019-03-31T15:25:31.531Z,102555.50
2019-03-31T15:28:35.901Z,102561.30
2019-03-31T15:31:40.233Z,102558.66
2019-03-31T15:34:44.622Z,102558.98
2019-03-31T15:37:48.974Z,102564.63
2019-03-31T15:40:53.300Z,102565.70
2019-03-31T15:43:57.701Z,102563.37
2019-03-31T15:47:02.067Z,102563.52
2019-03-31T15:50:07.183Z,102559.13
2019-03-31T15:53:11.514Z,102562.61
2019-03-31T15:56:15.936Z,102557.73
2019-03-31T15:59:20.328Z,102569.23
2019-03-31T16:02:26.266Z,102566.14
2019-03-31T16:05:30.604Z,102555.03
2019-03-31T16:08:34.433Z,102574.88
2019-03-31T16:11:38.232Z,102572.41
2019-03-31T16:14:42.108Z,102580.38
2019-03-31T16:17:45.926Z,102575.03
2019-03-31T16:20:49.735Z,102584.41
2019-03-31T16:23:53.566Z,102575.22
2019-03-31T16:26:57.367Z,102575.98
2019-03-31T16:30:01.214Z,102570.87
2019-03-31T16:33:07.036Z,102572.52
2019-03-31T16:36:10.702Z,102576.98
2019-03-31T16:39:14.610Z,102567.61
2019-03-31T16:42:18.411Z,102578.55
2019-03-31T16:45:22.302Z,102582.20
2019-03-31T16:48:26.076Z,102583.98
2019-03-31T16:51:29.989Z,102589.32
2019-03-31T16:54:33.784Z,102589.28
2019-03-31T16:57:37.608Z,102594.37
2019-03-31T17:00:41.419Z,102592.39
2019-03-31T17:03:45.195Z,102598.42
2019-03-31T17:06:49.010Z,102599.64
2019-03-31T17:09:52.809Z,102605.91
2019-03-31T17:12:56.616Z,102602.23
2019-03-31T17:16:00.444Z,102608.07
2019-03-31T17:19:04.310Z,102603.98
2019-03-31T17:22:08.224Z,102605.20
2019-03-31T17:25:12.563Z,102611.30
2019-03-31T17:28:16.402Z,102617.08
2019-03-31T17:31:20.275Z,102613.81
2019-03-31T17:34:24.161Z,102617.91
2019-03-31T17:37:27.969Z,102622.58
2019-03-31T17:40:31.877Z,102620.42
2019-03-31T17:43:35.705Z,102617.91
2019-03-31T17:46:39.658Z,102618.48
2019-03-31T17:49:43.574Z,102621.06
2019-03-31T17:52:47.366Z,102621.20
2019-03-31T17:55:51.316Z,102628.12
2019-03-31T17:58:55.197Z,102633.72
2019-03-31T18:01:59.035Z,102627.80
2019-03-31T18:05:02.863Z,102630.25
2019-03-31T18:08:06.632Z,102635.17
2019-03-31T18:11:10.597Z,102638.12
2019-03-31T18:14:14.384Z,102644.41
2019-03-31T18:17:18.221Z,102638.16
2019-03-31T18:20:22.044Z,102640.58
2019-03-31T18:23:25.867Z,102645.15
2019-03-31T18:26:29.755Z,102652.38
2019-03-31T18:29:33.571Z,102658.81
2019-03-31T18:32:37.371Z,102664.52
2019-03-31T18:35:41.224Z,102673.47
2019-03-31T18:38:45.145Z,102674.54
2019-03-31T18:41:48.957Z,102678.08
2019-03-31T18:44:52.799Z,102674.88
2019-03-31T18:47:56.611Z,102681.48
2019-03-31T18:51:00.399Z,102677.84
2019-03-31T18:54:26.353Z,102683.97
2019-03-31T18:57:41.210Z,102691.06
2019-03-31T19:00:54.529Z,102692.09
2019-03-31T19:04:07.158Z,102688.91
2019-03-31T19:07:25.014Z,102694.09
2019-03-31T19:10:49.942Z,102697.45
2019-03-31T19:14:05.187Z,102711.63
2019-03-31T19:17:27.130Z,102717.27
2019-03-31T19:21:11.114Z,102717.87
2019-03-31T19:24:24.488Z,102711.05
2019-03-31T19:28:02.773Z,102711.64
2019-03-31T19:31:24.648Z,102715.05
2019-03-31T19:34:48.030Z,102719.52
2019-03-31T19:38:13.854Z,102719.24
2019-03-31T19:41:29.723Z,102731.73
2019-03-31T19:44:43.365Z,102725.11
2019-03-31T19:48:21.563Z,102723.02
2019-03-31T19:51:49.039Z,102733.74
2019-03-31T19:55:14.676Z,102735.10
2019-03-31T19:58:46.882Z,102736.35
2019-03-31T20:02:08.152Z,102740.61
2019-03-31T20:05:32.625Z,102746.14
2019-03-31T20:08:55.562Z,102755.30
2019-03-31T20:12:09.129Z,102748.01
2019-03-31T20:15:27.913Z,102752.48
2019-03-31T20:18:48.919Z,102749.16
2019-03-31T20:22:02.139Z,102755.30
2019-03-31T20:25:16.797Z,102762.42
2019-03-31T20:28:51.876Z,102760.48
2019-03-31T20:32:20.687Z,102762.00
2019-03-31T20:35:55.913Z,102762.14
2019-03-31T20:39:17.351Z,102762.95
2019-03-31T20:42:46.072Z,102761.91
2019-03-31T20:45:49.873Z,102758.98
2019-03-31T20:48:53.769Z,102764.77
2019-03-31T20:51:57.572Z,102765.29
2019-03-31T20:55:15.316Z,102766.23
2019-03-31T20:58:06.923Z,102771.91
2019-03-31T21:01:10.896Z,102772.34
2019-03-31T21:04:14.727Z,102764.72
2019-03-31T21:07:18.524Z,102772.50
2019-03-31T21:10:22.332Z,102780.78
2019-03-31T21:13:26.173Z,102783.34
2019-03-31T21:16:29.996Z,102785.44
2019-03-31T21:19:33.788Z,102777.39
2019-03-31T21:22:37.615Z,102778.06
2019-03-31T21:25:41.455Z,102775.44
2019-03-31T21:28:45.298Z,102783.66
2019-03-31T21:31:49.105Z,102785.77
2019-03-31T21:34:52.963Z,102792.70
2019-03-31T21:37:56.806Z,102800.34
2019-03-31T21:41:00.613Z,102795.57
2019-03-31T21:44:04.544Z,102794.68
2019-03-31T21:47:08.327Z,102800.61
2019-03-31T21:50:12.285Z,102800.52
2019-03-31T21:53:16.103Z,102799.94
2019-03-31T21:56:19.875Z,102803.97
2019-03-31T21:59:23.845Z,102808.06
2019-03-31T22:02:27.771Z,102809.26
2019-03-31T22:05:31.686Z,102810.86
2019-03-31T22:08:35.581Z,102812.28
2019-03-31T22:11:39.384Z,102805.22
2019-03-31T22:14:43.178Z,102802.91
2019-03-31T22:17:46.995Z,102806.38
2019-03-31T22:20:50.837Z,102819.15
2019-03-31T22:23:58.116Z,102815.00
2019-03-31T22:27:00.193Z,102821.39
2019-03-31T22:30:04.413Z,102818.55
2019-03-31T22:33:08.222Z,102821.98
2019-03-31T22:36:21.175Z,102820.44
2019-03-31T22:39:25.046Z,102817.84
2019-03-31T22:42:28.860Z,102818.97
2019-03-31T22:45:32.745Z,102817.11
2019-03-31T22:48:36.566Z,102819.72
2019-03-31T22:51:40.375Z,102823.65
2019-03-31T22:54:44.208Z,102823.17
2019-03-31T22:57:48.168Z,102825.68
2019-03-31T23:00:52.902Z,102816.05
2019-03-31T23:03:56.740Z,102820.69
2019-03-31T23:07:00.574Z,102817.80
2019-03-31T23:10:04.582Z,102814.59
2019-03-31T23:13:08.393Z,102814.47
2019-03-31T23:16:12.364Z,102818.67
2019-03-31T23:19:16.187Z,102814.28
2019-03-31T23:22:20.027Z,102808.09
2019-03-31T23:25:23.831Z,102806.11
2019-03-31T23:28:27.649Z,102812.94
2019-03-31T23:31:31.444Z,102808.38
2019-03-31T23:34:35.274Z,102807.27
2019-03-31T23:37:39.112Z,102813.91
2019-03-31T23:40:42.950Z,102818.47
2019-03-31T23:43:46.747Z,102814.30
2019-03-31T23:46:50.560Z,102813.03
2019-03-31T23:49:54.346Z,102809.59
2019-03-31T23:52:58.188Z,102809.11
2019-03-31T23:56:01.973Z,102807.95
2019-03-31T23:59:05.772Z,102813.02
